sensor_id;sensor_type;location;lat;lon;timestamp;pressure;altitude;pressure_sealevel;temperature;humidity
50380;BME280;37474;59.468;18.040;2023-04-07T00:01:23;102561.75;;;-0.38;100.00
50380;BME280;37474;59.468;18.040;2023-04-07T00:03:51;102596.59;;;0.01;100.00
50380;BME280;37474;59.468;18.040;2023-04-07T00:06:21;102605.09;;;0.00;100.00
50380;BME280;37474;59.468;18.040;2023-04-07T00:08:52;102597.84;;;-0.19;100.00
50380;BME280;37474;59.468;18.040;2023-04-07T00:11:20;102599.19;;;-0.34;100.00
50380;BME280;37474;59.468;18.040;2023-04-07T00:13:48;102595.81;;;0.05;100.00
50380;BME280;37474;59.468;18.040;2023-04-07T00:16:17;102598.06;;;-0.10;100.00
50380;BME280;37474;59.468;18.040;2023-04-07T00:18:45;102595.59;;;-0.06;100.00
50380;BME280;37474;59.468;18.040;2023-04-07T00:21:15;102554.53;;;-0.18;100.00
50380;BME280;37474;59.468;18.040;2023-04-07T00:23:45;102592.34;;;0.00;100.00
50380;BME280;37474;59.468;18.040;2023-04-07T00:26:16;102589.06;;;0.06;100.00
50380;BME280;37474;59.468;18.040;2023-04-07T00:28:46;102581.47;;;0.10;100.00
50380;BME280;37474;59.468;18.040;2023-04-07T00:31:14;102556.03;;;-0.28;100.00
50380;BME280;37474;59.468;18.040;2023-04-07T00:33:47;102592.25;;;-0.03;100.00
50380;BME280;37474;59.468;18.040;2023-04-07T00:36:16;102587.50;;;0.12;100.00
50380;BME280;37474;59.468;18.040;2023-04-07T00:38:44;102585.47;;;-0.03;100.00
50380;BME280;37474;59.468;18.040;2023-04-07T00:41:17;102590.94;;;-0.23;100.00
50380;BME280;37474;59.468;18.040;2023-04-07T00:43:48;102585.91;;;-0.22;100.00
50380;BME280;37474;59.468;18.040;2023-04-07T00:46:19;102591.28;;;-0.10;100.00
50380;BME280;37474;59.468;18.040;2023-04-07T00:48:48;102588.09;;;0.01;100.00
50380;BME280;37474;59.468;18.040;2023-04-07T00:51:22;102597.03;;;-0.17;100.00
50380;BME280;37474;59.468;18.040;2023-04-07T00:53:50;102595.53;;;-0.09;100.00
50380;BME280;37474;59.468;18.040;2023-04-07T00:56:21;102596.31;;;-0.11;100.00
50380;BME280;37474;59.468;18.040;2023-04-07T00:58:49;102597.56;;;0.06;100.00
50380;BME280;37474;59.468;18.040;2023-04-07T01:01:23;102586.03;;;-0.16;100.00
50380;BME280;37474;59.468;18.040;2023-04-07T01:03:57;102583.72;;;-0.05;100.00
50380;BME280;37474;59.468;18.040;2023-04-07T01:06:38;102585.38;;;-0.07;100.00
50380;BME280;37474;59.468;18.040;2023-04-07T01:09:15;102569.06;;;-0.15;100.00
50380;BME280;37474;59.468;18.040;2023-04-07T01:11:54;102587.09;;;-0.06;100.00
50380;BME280;37474;59.468;18.040;2023-04-07T01:14:32;102565.59;;;-0.17;100.00
50380;BME280;37474;59.468;18.040;2023-04-07T01:17:06;102580.97;;;-0.14;100.00
50380;BME280;37474;59.468;18.040;2023-04-07T01:19:36;102576.97;;;-0.02;100.00
50380;BME280;37474;59.468;18.040;2023-04-07T01:22:07;102575.44;;;0.05;100.00
50380;BME280;37474;59.468;18.040;2023-04-07T01:24:57;102572.59;;;-0.09;100.00
50380;BME280;37474;59.468;18.040;2023-04-07T01:27:37;102569.41;;;0.00;100.00
50380;BME280;37474;59.468;18.040;2023-04-07T01:30:14;102570.06;;;-0.07;100.00
50380;BME280;37474;59.468;18.040;2023-04-07T01:32:49;102572.31;;;-0.21;100.00
50380;BME280;37474;59.468;18.040;2023-04-07T01:35:21;102495.53;;;-0.35;100.00
50380;BME280;37474;59.468;18.040;2023-04-07T01:37:52;102563.47;;;0.01;100.00
50380;BME280;37474;59.468;18.040;2023-04-07T01:40:21;102560.91;;;0.01;100.00
50380;BME280;37474;59.468;18.040;2023-04-07T01:42:55;102562.53;;;-0.01;100.00
50380;BME280;37474;59.468;18.040;2023-04-07T01:45:25;102516.16;;;-0.24;100.00
50380;BME280;37474;59.468;18.040;2023-04-07T01:47:56;102565.41;;;0.13;100.00
50380;BME280;37474;59.468;18.040;2023-04-07T01:50:25;102564.56;;;0.12;100.00
50380;BME280;37474;59.468;18.040;2023-04-07T01:52:53;102563.50;;;0.04;100.00
50380;BME280;37474;59.468;18.040;2023-04-07T01:55:26;102564.34;;;0.03;100.00
50380;BME280;37474;59.468;18.040;2023-04-07T01:57:53;102561.44;;;-0.14;100.00
50380;BME280;37474;59.468;18.040;2023-04-07T02:00:21;102555.22;;;-0.25;100.00
50380;BME280;37474;59.468;18.040;2023-04-07T02:02:58;102557.44;;;-0.01;100.00
50380;BME280;37474;59.468;18.040;2023-04-07T02:05:31;102567.19;;;0.17;100.00
50380;BME280;37474;59.468;18.040;2023-04-07T02:08:07;102565.56;;;0.20;100.00
50380;BME280;37474;59.468;18.040;2023-04-07T02:10:37;102562.69;;;0.05;100.00
50380;BME280;37474;59.468;18.040;2023-04-07T02:13:09;102564.56;;;0.12;100.00
50380;BME280;37474;59.468;18.040;2023-04-07T02:15:40;102561.59;;;-0.06;100.00
50380;BME280;37474;59.468;18.040;2023-04-07T02:18:15;102528.00;;;-0.28;100.00
50380;BME280;37474;59.468;18.040;2023-04-07T02:20:47;102568.47;;;-0.04;100.00
50380;BME280;37474;59.468;18.040;2023-04-07T02:23:17;102572.06;;;0.06;100.00
50380;BME280;37474;59.468;18.040;2023-04-07T02:25:47;102567.03;;;0.09;100.00
50380;BME280;37474;59.468;18.040;2023-04-07T02:28:17;102535.22;;;-0.08;100.00
50380;BME280;37474;59.468;18.040;2023-04-07T02:30:47;102577.16;;;0.06;100.00
50380;BME280;37474;59.468;18.040;2023-04-07T02:33:20;102577.06;;;0.02;100.00
50380;BME280;37474;59.468;18.040;2023-04-07T02:35:48;102581.09;;;-0.08;100.00
50380;BME280;37474;59.468;18.040;2023-04-07T02:38:17;102578.78;;;0.03;100.00
50380;BME280;37474;59.468;18.040;2023-04-07T02:40:48;102587.16;;;-0.03;100.00
50380;BME280;37474;59.468;18.040;2023-04-07T02:43:15;102589.59;;;-0.09;100.00
50380;BME280;37474;59.468;18.040;2023-04-07T02:45:48;102570.00;;;-0.10;100.00
50380;BME280;37474;59.468;18.040;2023-04-07T02:48:19;102591.19;;;-0.13;100.00
50380;BME280;37474;59.468;18.040;2023-04-07T02:50:46;102584.41;;;-0.12;100.00
50380;BME280;37474;59.468;18.040;2023-04-07T02:53:16;102581.25;;;-0.01;100.00
50380;BME280;37474;59.468;18.040;2023-04-07T02:55:46;102582.28;;;0.08;100.00
50380;BME280;37474;59.468;18.040;2023-04-07T02:58:14;102582.34;;;0.11;100.00
50380;BME280;37474;59.468;18.040;2023-04-07T03:00:43;102580.59;;;0.07;100.00
50380;BME280;37474;59.468;18.040;2023-04-07T03:03:13;102572.16;;;0.11;100.00
50380;BME280;37474;59.468;18.040;2023-04-07T03:05:43;102578.69;;;-0.01;100.00
50380;BME280;37474;59.468;18.040;2023-04-07T03:08:12;102581.97;;;-0.06;100.00
50380;BME280;37474;59.468;18.040;2023-04-07T03:10:42;102576.00;;;-0.08;100.00
50380;BME280;37474;59.468;18.040;2023-04-07T03:13:10;102578.53;;;-0.10;100.00
50380;BME280;37474;59.468;18.040;2023-04-07T03:15:45;102585.34;;;-0.09;100.00
50380;BME280;37474;59.468;18.040;2023-04-07T03:18:13;102583.84;;;0.01;100.00
50380;BME280;37474;59.468;18.040;2023-04-07T03:20:42;102583.03;;;0.02;100.00
50380;BME280;37474;59.468;18.040;2023-04-07T03:23:15;102580.22;;;-0.10;100.00
50380;BME280;37474;59.468;18.040;2023-04-07T03:25:43;102583.66;;;-0.07;100.00
50380;BME280;37474;59.468;18.040;2023-04-07T03:28:12;102543.50;;;-0.17;100.00
50380;BME280;37474;59.468;18.040;2023-04-07T03:30:45;102549.66;;;-0.09;100.00
50380;BME280;37474;59.468;18.040;2023-04-07T03:33:12;102588.16;;;0.05;100.00
50380;BME280;37474;59.468;18.040;2023-04-07T03:35:42;102587.50;;;0.12;100.00
50380;BME280;37474;59.468;18.040;2023-04-07T03:38:14;102587.09;;;-0.06;100.00
50380;BME280;37474;59.468;18.040;2023-04-07T03:40:42;102596.47;;;-0.05;100.00
50380;BME280;37474;59.468;18.040;2023-04-07T03:43:10;102594.94;;;0.03;100.00
50380;BME280;37474;59.468;18.040;2023-04-07T03:45:45;102594.94;;;0.03;100.00
50380;BME280;37474;59.468;18.040;2023-04-07T03:48:13;102589.13;;;0.10;100.00
50380;BME280;37474;59.468;18.040;2023-04-07T03:50:42;102592.38;;;0.03;100.00
50380;BME280;37474;59.468;18.040;2023-04-07T03:53:14;102591.16;;;-0.14;100.00
50380;BME280;37474;59.468;18.040;2023-04-07T03:55:42;102583.78;;;-0.02;100.00
50380;BME280;37474;59.468;18.040;2023-04-07T03:58:10;102585.50;;;-0.01;100.00
50380;BME280;37474;59.468;18.040;2023-04-07T04:00:40;102593.00;;;-0.07;100.00
50380;BME280;37474;59.468;18.040;2023-04-07T04:03:08;102595.50;;;-0.10;100.00
50380;BME280;37474;59.468;18.040;2023-04-07T04:05:37;102600.78;;;-0.03;100.00
50380;BME280;37474;59.468;18.040;2023-04-07T04:08:10;102602.72;;;0.09;100.00
50380;BME280;37474;59.468;18.040;2023-04-07T04:10:38;102604.13;;;-0.05;100.00
50380;BME280;37474;59.468;18.040;2023-04-07T04:13:06;102601.34;;;-0.16;100.00
50380;BME280;37474;59.468;18.040;2023-04-07T04:15:38;102608.44;;;-0.01;100.00
50380;BME280;37474;59.468;18.040;2023-04-07T04:18:06;102609.13;;;-0.10;100.00
50380;BME280;37474;59.468;18.040;2023-04-07T04:20:34;102610.03;;;-0.06;100.00
50380;BME280;37474;59.468;18.040;2023-04-07T04:23:06;102614.47;;;0.01;100.00
50380;BME280;37474;59.468;18.040;2023-04-07T04:25:36;102619.78;;;0.12;100.00
50380;BME280;37474;59.468;18.040;2023-04-07T04:28:10;102612.16;;;0.12;100.00
50380;BME280;37474;59.468;18.040;2023-04-07T04:30:38;102612.28;;;0.19;100.00
50380;BME280;37474;59.468;18.040;2023-04-07T04:33:06;102617.25;;;0.12;100.00
50380;BME280;37474;59.468;18.040;2023-04-07T04:35:39;102620.03;;;0.22;100.00
50380;BME280;37474;59.468;18.040;2023-04-07T04:38:07;102622.41;;;0.16;100.00
50380;BME280;37474;59.468;18.040;2023-04-07T04:40:36;102622.41;;;0.16;100.00
50380;BME280;37474;59.468;18.040;2023-04-07T04:43:08;102627.69;;;0.22;100.00
50380;BME280;37474;59.468;18.040;2023-04-07T04:45:35;102627.72;;;0.24;100.00
50380;BME280;37474;59.468;18.040;2023-04-07T04:48:06;102633.44;;;0.14;100.00
50380;BME280;37474;59.468;18.040;2023-04-07T04:50:36;102632.59;;;0.15;100.00
50380;BME280;37474;59.468;18.040;2023-04-07T04:53:04;102634.38;;;0.17;100.00
50380;BME280;37474;59.468;18.040;2023-04-07T04:55:35;102638.75;;;0.23;100.00
50380;BME280;37474;59.468;18.040;2023-04-07T04:58:05;102645.47;;;0.21;100.00
50380;BME280;37474;59.468;18.040;2023-04-07T05:00:33;102646.06;;;0.09;100.00
50380;BME280;37474;59.468;18.040;2023-04-07T05:03:03;102647.78;;;0.10;100.00
50380;BME280;37474;59.468;18.040;2023-04-07T05:05:34;102662.22;;;0.08;100.00
50380;BME280;37474;59.468;18.040;2023-04-07T05:08:01;102653.03;;;0.16;100.00
50380;BME280;37474;59.468;18.040;2023-04-07T05:10:32;102649.47;;;0.08;100.00
50380;BME280;37474;59.468;18.040;2023-04-07T05:13:03;102659.91;;;0.19;100.00
50380;BME280;37474;59.468;18.040;2023-04-07T05:15:30;102653.72;;;0.09;100.00
50380;BME280;37474;59.468;18.040;2023-04-07T05:18:00;102656.53;;;0.21;100.00
50380;BME280;37474;59.468;18.040;2023-04-07T05:20:31;102653.22;;;0.24;100.00
50380;BME280;37474;59.468;18.040;2023-04-07T05:22:59;102656.38;;;0.14;100.00
50380;BME280;37474;59.468;18.040;2023-04-07T05:25:29;102660.47;;;0.06;100.00
50380;BME280;37474;59.468;18.040;2023-04-07T05:27:58;102655.78;;;0.24;100.00
50380;BME280;37474;59.468;18.040;2023-04-07T05:30:27;102638.28;;;0.03;100.00
50380;BME280;37474;59.468;18.040;2023-04-07T05:32:57;102654.06;;;0.23;100.00
50380;BME280;37474;59.468;18.040;2023-04-07T05:35:25;102664.16;;;0.20;100.00
50380;BME280;37474;59.468;18.040;2023-04-07T05:37:53;102638.91;;;0.32;100.00
50380;BME280;37474;59.468;18.040;2023-04-07T05:40:23;102666.34;;;0.41;100.00
50380;BME280;37474;59.468;18.040;2023-04-07T05:42:53;102674.81;;;0.40;100.00
50380;BME280;37474;59.468;18.040;2023-04-07T05:45:21;102673.28;;;0.48;100.00
50380;BME280;37474;59.468;18.040;2023-04-07T05:47:52;102675.50;;;0.33;100.00
50380;BME280;37474;59.468;18.040;2023-04-07T05:50:22;102678.50;;;0.54;100.00
50380;BME280;37474;59.468;18.040;2023-04-07T05:52:49;102649.00;;;0.26;100.00
50380;BME280;37474;59.468;18.040;2023-04-07T05:55:17;102676.47;;;0.38;100.00
50380;BME280;37474;59.468;18.040;2023-04-07T05:57:47;102677.56;;;0.49;100.00
50380;BME280;37474;59.468;18.040;2023-04-07T06:00:16;102681.97;;;0.56;100.00
50380;BME280;37474;59.468;18.040;2023-04-07T06:02:47;102678.38;;;0.46;100.00
50380;BME280;37474;59.468;18.040;2023-04-07T06:05:18;102685.44;;;0.60;100.00
50380;BME280;37474;59.468;18.040;2023-04-07T06:07:46;102687.88;;;0.55;100.00
50380;BME280;37474;59.468;18.040;2023-04-07T06:10:16;102683.50;;;0.48;100.00
50380;BME280;37474;59.468;18.040;2023-04-07T06:12:46;102679.06;;;0.39;100.00
50380;BME280;37474;59.468;18.040;2023-04-07T06:15:14;102680.97;;;0.49;100.00
50380;BME280;37474;59.468;18.040;2023-04-07T06:17:45;102684.59;;;0.61;100.00
50380;BME280;37474;59.468;18.040;2023-04-07T06:20:17;102663.19;;;0.54;100.00
50380;BME280;37474;59.468;18.040;2023-04-07T06:22:49;102686.34;;;0.62;100.00
50380;BME280;37474;59.468;18.040;2023-04-07T06:25:17;102680.16;;;0.50;100.00
50380;BME280;37474;59.468;18.040;2023-04-07T06:27:44;102694.06;;;0.65;100.00
50380;BME280;37474;59.468;18.040;2023-04-07T06:30:13;102695.84;;;0.69;100.00
50380;BME280;37474;59.468;18.040;2023-04-07T06:32:41;102700.16;;;0.71;100.00
50380;BME280;37474;59.468;18.040;2023-04-07T06:35:09;102698.66;;;0.83;100.00
50380;BME280;37474;59.468;18.040;2023-04-07T06:37:39;102701.84;;;0.71;100.00
50380;BME280;37474;59.468;18.040;2023-04-07T06:40:09;102701.22;;;0.83;100.00
50380;BME280;37474;59.468;18.040;2023-04-07T06:42:39;102695.34;;;0.87;100.00
50380;BME280;37474;59.468;18.040;2023-04-07T06:45:08;102703.47;;;0.67;100.00
50380;BME280;37474;59.468;18.040;2023-04-07T06:47:38;102705.44;;;0.81;100.00
50380;BME280;37474;59.468;18.040;2023-04-07T06:50:08;102706.34;;;0.83;100.00
50380;BME280;37474;59.468;18.040;2023-04-07T06:52:36;102696.06;;;0.79;100.00
50380;BME280;37474;59.468;18.040;2023-04-07T06:55:08;102700.41;;;0.84;100.00
50380;BME280;37474;59.468;18.040;2023-04-07T06:57:38;102702.06;;;0.82;100.00
50380;BME280;37474;59.468;18.040;2023-04-07T07:00:07;102700.59;;;0.94;100.00
50380;BME280;37474;59.468;18.040;2023-04-07T07:02:37;102706.66;;;0.98;100.00
50380;BME280;37474;59.468;18.040;2023-04-07T07:05:08;102711.72;;;0.95;100.00
50380;BME280;37474;59.468;18.040;2023-04-07T07:07:36;102705.66;;;0.90;100.00
50380;BME280;37474;59.468;18.040;2023-04-07T07:10:10;102708.38;;;0.99;100.00
50380;BME280;37474;59.468;18.040;2023-04-07T07:12:38;102707.72;;;1.09;100.00
50380;BME280;37474;59.468;18.040;2023-04-07T07:15:06;102650.69;;;0.66;100.00
50380;BME280;37474;59.468;18.040;2023-04-07T07:17:38;102713.13;;;1.24;100.00
50380;BME280;37474;59.468;18.040;2023-04-07T07:20:07;102715.69;;;1.26;100.00
50380;BME280;37474;59.468;18.040;2023-04-07T07:22:35;102701.63;;;1.02;100.00
50380;BME280;37474;59.468;18.040;2023-04-07T07:25:04;102712.63;;;1.00;100.00
50380;BME280;37474;59.468;18.040;2023-04-07T07:27:36;102706.66;;;0.98;100.00
50380;BME280;37474;59.468;18.040;2023-04-07T07:30:05;102719.44;;;0.99;100.00
50380;BME280;37474;59.468;18.040;2023-04-07T07:32:33;102707.41;;;0.94;100.00
50380;BME280;37474;59.468;18.040;2023-04-07T07:35:01;102717.94;;;1.11;100.00
50380;BME280;37474;59.468;18.040;2023-04-07T07:37:29;102721.75;;;1.29;100.00
50380;BME280;37474;59.468;18.040;2023-04-07T07:39:57;102719.72;;;1.13;100.00
50380;BME280;37474;59.468;18.040;2023-04-07T07:42:25;102722.47;;;1.22;100.00
50380;BME280;37474;59.468;18.040;2023-04-07T07:44:56;102723.31;;;1.23;100.00
50380;BME280;37474;59.468;18.040;2023-04-07T07:47:26;102721.72;;;1.28;100.00
50380;BME280;37474;59.468;18.040;2023-04-07T07:49:53;102691.22;;;0.93;100.00
50380;BME280;37474;59.468;18.040;2023-04-07T07:52:21;102723.84;;;1.07;100.00
50380;BME280;37474;59.468;18.040;2023-04-07T07:54:50;102730.72;;;1.11;100.00
50380;BME280;37474;59.468;18.040;2023-04-07T07:57:17;102740.28;;;1.19;100.00
50380;BME280;37474;59.468;18.040;2023-04-07T07:59:45;102740.34;;;1.22;100.00
50380;BME280;37474;59.468;18.040;2023-04-07T08:02:15;102714.50;;;1.07;100.00
50380;BME280;37474;59.468;18.040;2023-04-07T08:04:43;102746.22;;;1.18;100.00
50380;BME280;37474;59.468;18.040;2023-04-07T08:07:11;102692.19;;;1.00;100.00
50380;BME280;37474;59.468;18.040;2023-04-07T08:09:38;102759.22;;;1.30;100.00
50380;BME280;37474;59.468;18.040;2023-04-07T08:12:06;102758.41;;;1.33;100.00
50380;BME280;37474;59.468;18.040;2023-04-07T08:14:34;102751.38;;;1.21;100.00
50380;BME280;37474;59.468;18.040;2023-04-07T08:17:02;102757.06;;;1.50;100.00
50380;BME280;37474;59.468;18.040;2023-04-07T08:19:31;102745.06;;;1.46;100.00
50380;BME280;37474;59.468;18.040;2023-04-07T08:22:01;102756.59;;;1.27;100.00
50380;BME280;37474;59.468;18.040;2023-04-07T08:24:31;102761.28;;;1.48;100.00
50380;BME280;37474;59.468;18.040;2023-04-07T08:26:59;102753.28;;;1.31;100.00
50380;BME280;37474;59.468;18.040;2023-04-07T08:29:29;102764.31;;;1.29;100.00
50380;BME280;37474;59.468;18.040;2023-04-07T08:32:00;102766.59;;;1.61;100.00
50380;BME280;37474;59.468;18.040;2023-04-07T08:34:27;102764.34;;;1.30;100.00
50380;BME280;37474;59.468;18.040;2023-04-07T08:36:59;102769.91;;;1.55;100.00
50380;BME280;37474;59.468;18.040;2023-04-07T08:39:28;102766.75;;;1.67;100.00
50380;BME280;37474;59.468;18.040;2023-04-07T08:41:56;102717.84;;;1.50;100.00
50380;BME280;37474;59.468;18.040;2023-04-07T08:44:27;102760.94;;;1.77;100.00
50380;BME280;37474;59.468;18.040;2023-04-07T08:46:58;102765.94;;;1.71;100.00
50380;BME280;37474;59.468;18.040;2023-04-07T08:49:31;102739.38;;;1.61;100.00
50380;BME280;37474;59.468;18.040;2023-04-07T08:52:05;102766.19;;;1.84;100.00
50380;BME280;37474;59.468;18.040;2023-04-07T08:54:37;102764.28;;;1.73;100.00
50380;BME280;37474;59.468;18.040;2023-04-07T08:57:07;102702.94;;;1.26;100.00
50380;BME280;37474;59.468;18.040;2023-04-07T08:59:35;102763.47;;;1.75;100.00
50380;BME280;37474;59.468;18.040;2023-04-07T09:02:05;102760.88;;;1.74;100.00
50380;BME280;37474;59.468;18.040;2023-04-07T09:04:35;102724.34;;;1.79;100.00
50380;BME280;37474;59.468;18.040;2023-04-07T09:07:04;102762.69;;;1.79;100.00
50380;BME280;37474;59.468;18.040;2023-04-07T09:09:34;102770.66;;;1.98;100.00
50380;BME280;37474;59.468;18.040;2023-04-07T09:12:01;102760.06;;;1.76;100.00
50380;BME280;37474;59.468;18.040;2023-04-07T09:14:29;102761.94;;;1.85;100.00
50380;BME280;37474;59.468;18.040;2023-04-07T09:16:57;102773.19;;;1.95;100.00
50380;BME280;37474;59.468;18.040;2023-04-07T09:19:26;102769.13;;;2.06;100.00
50380;BME280;37474;59.468;18.040;2023-04-07T09:21:58;102768.13;;;1.99;100.00
50380;BME280;37474;59.468;18.040;2023-04-07T09:24:28;102769.34;;;2.21;100.00
50380;BME280;37474;59.468;18.040;2023-04-07T09:27:11;102774.34;;;2.15;100.00
50380;BME280;37474;59.468;18.040;2023-04-07T09:29:43;102772.47;;;2.05;100.00
50380;BME280;37474;59.468;18.040;2023-04-07T09:32:11;102722.56;;;1.75;100.00
50380;BME280;37474;59.468;18.040;2023-04-07T09:34:40;102766.97;;;1.80;100.00
50380;BME280;37474;59.468;18.040;2023-04-07T09:37:20;102775.69;;;1.93;100.00
50380;BME280;37474;59.468;18.040;2023-04-07T09:39:52;102778.50;;;2.07;100.00
50380;BME280;37474;59.468;18.040;2023-04-07T09:42:22;102766.44;;;2.00;100.00
50380;BME280;37474;59.468;18.040;2023-04-07T09:44:53;102787.44;;;1.80;100.00
50380;BME280;37474;59.468;18.040;2023-04-07T09:47:27;102785.53;;;2.20;100.00
50380;BME280;37474;59.468;18.040;2023-04-07T09:49:57;102789.53;;;2.04;100.00
50380;BME280;37474;59.468;18.040;2023-04-07T09:52:48;102719.63;;;1.55;100.00
50380;BME280;37474;59.468;18.040;2023-04-07T09:55:21;102795.94;;;2.29;100.00
50380;BME280;37474;59.468;18.040;2023-04-07T09:57:52;102796.25;;;1.99;100.00
50380;BME280;37474;59.468;18.040;2023-04-07T10:00:23;102791.31;;;2.08;100.00
50380;BME280;37474;59.468;18.040;2023-04-07T10:02:53;102792.19;;;2.09;100.00
50380;BME280;37474;59.468;18.040;2023-04-07T10:05:22;102767.88;;;1.84;100.00
50380;BME280;37474;59.468;18.040;2023-04-07T10:07:53;102760.41;;;1.95;100.00
50380;BME280;37474;59.468;18.040;2023-04-07T10:10:28;102802.59;;;2.20;100.00
50380;BME280;37474;59.468;18.040;2023-04-07T10:12:59;102802.59;;;2.21;100.00
50380;BME280;37474;59.468;18.040;2023-04-07T10:15:26;102795.00;;;2.24;100.00
50380;BME280;37474;59.468;18.040;2023-04-07T10:17:55;102806.03;;;2.22;100.00
50380;BME280;37474;59.468;18.040;2023-04-07T10:20:23;102806.75;;;2.13;100.00
50380;BME280;37474;59.468;18.040;2023-04-07T10:22:52;102791.34;;;2.10;100.00
50380;BME280;37474;59.468;18.040;2023-04-07T10:25:25;102803.19;;;2.05;100.00
50380;BME280;37474;59.468;18.040;2023-04-07T10:27:58;102768.41;;;2.16;100.00
50380;BME280;37474;59.468;18.040;2023-04-07T10:30:30;102801.13;;;2.34;100.00
50380;BME280;37474;59.468;18.040;2023-04-07T10:32:59;102803.25;;;2.08;100.00
50380;BME280;37474;59.468;18.040;2023-04-07T10:35:28;102800.69;;;2.08;100.00
50380;BME280;37474;59.468;18.040;2023-04-07T10:38:11;102804.97;;;2.09;100.00
50380;BME280;37474;59.468;18.040;2023-04-07T10:40:46;102803.19;;;2.05;100.00
50380;BME280;37474;59.468;18.040;2023-04-07T10:43:36;102745.00;;;1.92;100.00
50380;BME280;37474;59.468;18.040;2023-04-07T10:46:04;102798.06;;;2.03;100.00
50380;BME280;37474;59.468;18.040;2023-04-07T10:48:32;102798.06;;;2.05;100.00
50380;BME280;37474;59.468;18.040;2023-04-07T10:51:13;102801.44;;;2.01;100.00
50380;BME280;37474;59.468;18.040;2023-04-07T10:57:09;102811.91;;;2.16;100.00
50380;BME280;37474;59.468;18.040;2023-04-07T10:59:40;102806.25;;;2.34;100.00
50380;BME280;37474;59.468;18.040;2023-04-07T11:02:30;102810.34;;;2.23;100.00
50380;BME280;37474;59.468;18.040;2023-04-07T11:05:02;102808.44;;;2.11;100.00
50380;BME280;37474;59.468;18.040;2023-04-07T11:07:44;102807.03;;;2.31;100.00
50380;BME280;37474;59.468;18.040;2023-04-07T11:10:15;102810.59;;;2.40;100.00
50380;BME280;37474;59.468;18.040;2023-04-07T11:12:58;102802.69;;;2.27;100.00
50380;BME280;37474;59.468;18.040;2023-04-07T11:15:28;102820.09;;;2.48;100.00
50380;BME280;37474;59.468;18.040;2023-04-07T11:18:13;102816.31;;;2.23;100.00
50380;BME280;37474;59.468;18.040;2023-04-07T11:20:47;102811.63;;;2.51;100.00
50380;BME280;37474;59.468;18.040;2023-04-07T11:23:16;102813.06;;;2.33;100.00
50380;BME280;37474;59.468;18.040;2023-04-07T11:25:48;102814.88;;;2.41;100.00
50380;BME280;37474;59.468;18.040;2023-04-07T11:28:17;102812.25;;;2.36;100.00
50380;BME280;37474;59.468;18.040;2023-04-07T11:30:47;102820.00;;;2.41;100.00
50380;BME280;37474;59.468;18.040;2023-04-07T11:33:18;102820.97;;;2.49;100.00
50380;BME280;37474;59.468;18.040;2023-04-07T11:35:51;102812.41;;;2.47;100.00
50380;BME280;37474;59.468;18.040;2023-04-07T11:38:21;102810.66;;;2.44;100.00
50380;BME280;37474;59.468;18.040;2023-04-07T11:40:50;102817.38;;;2.37;100.00
50380;BME280;37474;59.468;18.040;2023-04-07T11:43:21;102816.56;;;2.40;100.00
50380;BME280;37474;59.468;18.040;2023-04-07T11:46:06;102812.59;;;2.59;100.00
50380;BME280;37474;59.468;18.040;2023-04-07T11:48:35;102818.38;;;2.46;100.00
50380;BME280;37474;59.468;18.040;2023-04-07T11:51:04;102813.59;;;2.69;100.00
50380;BME280;37474;59.468;18.040;2023-04-07T11:53:35;102801.63;;;2.68;100.00
50380;BME280;37474;59.468;18.040;2023-04-07T11:56:07;102779.13;;;2.47;100.00
50380;BME280;37474;59.468;18.040;2023-04-07T11:58:46;102821.44;;;2.81;100.00
50380;BME280;37474;59.468;18.040;2023-04-07T12:01:15;102821.50;;;2.85;100.00
50380;BME280;37474;59.468;18.040;2023-04-07T12:03:54;102830.69;;;2.71;100.00
50380;BME280;37474;59.468;18.040;2023-04-07T12:06:27;102826.31;;;2.62;100.00
50380;BME280;37474;59.468;18.040;2023-04-07T12:08:58;102820.28;;;2.60;100.00
50380;BME280;37474;59.468;18.040;2023-04-07T12:11:26;102823.09;;;2.77;100.00
50380;BME280;37474;59.468;18.040;2023-04-07T12:13:59;102818.19;;;2.92;100.00
50380;BME280;37474;59.468;18.040;2023-04-07T12:16:30;102779.97;;;2.46;100.00
50380;BME280;37474;59.468;18.040;2023-04-07T12:19:02;102820.59;;;2.82;100.00
50380;BME280;37474;59.468;18.040;2023-04-07T12:21:30;102766.41;;;2.51;100.00
50380;BME280;37474;59.468;18.040;2023-04-07T12:23:58;102817.94;;;2.74;100.00
50380;BME280;37474;59.468;18.040;2023-04-07T12:26:30;102813.03;;;2.89;100.00
50380;BME280;37474;59.468;18.040;2023-04-07T12:29:01;102818.75;;;2.72;100.00
50380;BME280;37474;59.468;18.040;2023-04-07T12:31:32;102817.31;;;2.89;100.00
50380;BME280;37474;59.468;18.040;2023-04-07T12:34:04;102808.78;;;2.93;100.00
50380;BME280;37474;59.468;18.040;2023-04-07T12:36:32;102809.88;;;3.09;100.00
50380;BME280;37474;59.468;18.040;2023-04-07T12:39:02;102754.06;;;2.85;100.00
50380;BME280;37474;59.468;18.040;2023-04-07T12:41:30;102802.03;;;2.97;100.00
50380;BME280;37474;59.468;18.040;2023-04-07T12:44:02;102800.44;;;3.06;100.00
50380;BME280;37474;59.468;18.040;2023-04-07T12:46:29;102804.34;;;2.78;100.00
50380;BME280;37474;59.468;18.040;2023-04-07T12:48:57;102805.47;;;2.99;100.00
50380;BME280;37474;59.468;18.040;2023-04-07T12:51:25;102800.38;;;3.02;100.00
50380;BME280;37474;59.468;18.040;2023-04-07T12:53:54;102803.16;;;3.20;98.14
50380;BME280;37474;59.468;18.040;2023-04-07T12:56:21;102810.91;;;3.25;97.55
50380;BME280;37474;59.468;18.040;2023-04-07T12:58:53;102801.66;;;3.34;97.00